Aktualne dane pomiarowe

Uwaga, wersja testowa! Automatyczne pobieranie danych za pomocą narzędzi lub skryptów to umożliwiających jest zabronione.

Dane meteo z obszaru Polski uzyskane na podstawie depesz SYNOP pobieranych co godzinę z NWS. Najedź myszką na symbol przedstawiony w tabeli, aby uzyskać informacje co do jego znaczenia. Prosimy pamiętać, że to testowa wersja strony, która jeszcze nie jest ukończona. Stworzono również jest krótki FAQ dotyczący korzystania z tej podstrony Anomalie temperatury w chwili obecnej odniesione są do okresu referencyjnego 1951-2016. Okres ten będzie później zmieniony na 1981-2010. Kliknij ikonę aby pobrać plik CSV. Kliknij ikonę aby wygenerować mapę synoptyczną dla danego terminu.

Wybierz Datę:    

        

Lublin-Radawiec (12495)

Dane terminowe dla wybranej stacji. Kliknij datę, aby otrzymać dane z tego terminu dla wszystkich stacji.

TemperaturaZachmurzenieWiatrCiśnienieOpadyPogoda
 Data t td wb tx tn tg rh  Nt Nl Cl Cm Ch ws wd g1 g2 wx mslp ppp ch 24h 12h t ww ww w1 w2  
2019-08-08 23:00:00 16.1 12.7 13.8--- 8024.0wxwxwxwx1wx--11012.9 984.6 0.6----22----
2019-08-08 22:00:00 16.3 12.7 13.9--- 7925.0wx-wx0---01013.0 984.7 0.7----22----
2019-08-08 21:00:00 16.4 12.3 13.7--- 7727.0wx-wx0---01012.6 984.3 0.8----22----
2019-08-08 20:00:00 17.3 12.5 14.2--- 7322.0wx-1wx---1012.2 984.0 0.9---------
2019-08-08 19:00:00 18.5 11.9 14.3--- 6540.0wx-wxwx1wx--11012.0 984.0 1.0---------
2019-08-08 18:00:00 20.6 11.6 15.1 25.1 17.6- 5650.0wx-wxwx2wx-1121011.3 983.5 0.5- 0.612------
2019-08-08 17:00:00 23.2 11.4 16.1--- 4740.0wxwxwxwxwx2wx--21010.7 983.1 0.4---------
2019-08-08 16:00:00 23.5 10.6 15.8--- 4435.0wxwxwxwx4wx---1010.5 983.0 0.5---------
2019-08-08 15:00:00 24.3 11.4 16.5--- 4435.0wxwxwxwx5wx10--1010.5 983.0 0.7---------
2019-08-08 14:00:00 24.4 11.4 16.6--- 4440.0wxwxwxwx5wx-1051010.1 982.7 0.8---------
2019-08-08 13:00:00 23.9 11.7 16.5--- 4635.0wxwxwxwx6wx-1161010.0 982.5 1.1---------
2019-08-08 12:00:00 23.4 13.4 17.1--- 5335.0wxwxwxwx5wx-1251009.8 982.3 1.3- 0.66wx-w1--
2019-08-08 11:00:00 23.1 14.2 17.4--- 5735.0wxwxwx6wx-1261009.4 981.9 1.5---------
2019-08-08 10:00:00 21.7 14.9 17.2--- 6530.0wxwxwxwx7wx-1271009.1 981.4 1.7---------
2019-08-08 09:00:00 20.2 15.9 17.3--- 7640.0wxwxwxwx6wx-1261008.8 981.0 2.4---wx-w1--
2019-08-08 08:00:00 19.2 17.4 17.9--- 8926.0wxwxwxwx5wx--51008.3 980.4 2.6---------
2019-08-08 07:00:00 17.8 17.3 17.4--- 9730.0wxwxwx5wx-1251007.7 979.7 2.2---wx-w1--
2019-08-08 06:00:00 17.9 17.8 17.8 20.8 17.4 17 9912.0wxwxwx5wx--51006.5 978.6 1.2 6.7 5.012wx-w1w2- 7.1
2019-08-08 05:00:00 17.8 17.7 17.7--- 999.0wxwxwx2wx---1005.7 977.8 -0.1---wx-w1w2--
2019-08-08 04:00:00 17.7 17.6 17.6--- 996.0wxwxwx2wx---1005.4 977.5 -0.8---wx-w1w2--
2019-08-08 03:00:00 18.0 17.8 17.8--- 996.0wxwxwx3wx--31005.3 977.4 -1.3---wx---
2019-08-08 02:00:00 17.5 17.3 17.3--- 994.0wxwxwx1wx--11005.9 977.9 -0.5---wx---
2019-08-08 01:00:00 17.6 17.5 17.5--- 994.0wxwxwxwx0---01006.3 978.3 -0.4---wx---
2019-08-08 00:00:00 17.4 17.3 17.3--- 994.0wx-wx1wx--11006.7 978.7 -0.3- 0.06wx---
2019-08-07 23:00:00 17.4 17.2 17.2--- 994.0wx-wx2wx--21006.4 978.4 -0.8---wx---
2019-08-07 22:00:00 18.2 17.8 17.9--- 9810.0wx-wx2wx--21006.6 978.7 -1.2---------
2019-08-07 21:00:00 18.3 17.6 17.8--- 9620.0wx-wxwx2wx--21006.9 979.0 -0.7---------
2019-08-07 20:00:00 18.9 17.7 18.0--- 9322.0wx-wxwx1wx---1007.1 979.2 -0.7---------
2019-08-07 19:00:00 19.7 18.1 18.5--- 9123.0wx-wxwx0----1007.7 979.9 -0.5---------
2019-08-07 18:00:00 20.8 19.0 19.5 26.6 18.7- 8926.0wxwxwxwxwx2wx-921007.4 979.7 -1.4- 2.012wx-w1w2--
2019-08-07 17:00:00 21.7 19.4 20.0--- 8730.0wxwxwxwxwx3wx--31007.5 979.9 -1.6---------
2019-08-07 16:00:00 22.0 19.6 20.3--- 8630.0wxwxwxwxwx2wx--21008.0 980.4 -0.8---------
2019-08-07 15:00:00 19.9 19.0 19.2--- 9524.0wxwxwxwx2wx-921008.9 981.1 -0.1---wx-w1w2--
2019-08-07 14:00:00 19.3 18.4 18.6--- 9528.0wxwxwxwx1wx---1009.4 981.5 0.0---wx-w1--
2019-08-07 13:00:00 25.5 17.0 19.9--- 5945.0wxwxwxwx1wx--11008.5 981.2 -0.6---wx---
2019-08-07 12:00:00 26.5 17.7 20.6--- 5935.0wxwxwxwx3wx--31008.4 981.2 -0.6- 0.06------
2019-08-07 11:00:00 26.2 17.4 20.3--- 5830.0wxwxwxwxwx3wx--31008.7 981.5 -0.2---------
2019-08-07 10:00:00 25.3 17.8 20.2--- 6330.0wxwxwxwxwx2wx--21009.1 981.8 0.1---------
2019-08-07 09:00:00 23.8 17.6 19.6--- 6830.0wx-wxwx2wx--21009.3 981.8 0.1---------
2019-08-07 08:00:00 22.9 19.2 20.3--- 8025.0wx-wxwx2wx--21009.3 981.7 -0.2---------
2019-08-07 07:00:00 21.1 19.5 19.9--- 9114.0wx-wxwx1wx--11009.4 981.7 -0.2---------
2019-08-07 06:00:00 19.0 18.4 18.6 23.5 16.8 16 9610.0wx-wxwx1wx--11009.6 981.7 -0.1 8.9 9.012wx-w1w2- 9.0
2019-08-07 05:00:00 18.0 17.8 17.8--- 997.0wxwxwxwxwx1wx--11009.9 981.9 0.1---wx-w1--
2019-08-07 04:00:00 16.9 16.5 16.6--- 9710.0wxwxwx1wx---1010.0 981.9 0.1---wx-w1w2--
2019-08-07 03:00:00 17.1 16.2 16.4--- 948.0wxwxwx2wx--21009.9 981.8 -0.1---wx-w1--
2019-08-07 02:00:00 18.0 16.8 17.1--- 9315.0wxwxwx2wx--21009.8 981.8 -0.4---wx-w1w2--
2019-08-07 01:00:00 18.9 17.3 17.7--- 9019.0wxwxwxwx2wx--21009.7 981.8 -0.6---wx---
2019-08-07 00:00:00 18.1 16.5 16.9--- 9018.0wx-wx1wx-1111009.9 981.9 -0.6- 3.06wx-w1--
1.2 ms

 

Print Friendly, PDF & Email